createdAt,value
2023-05-21T00:01:16.536Z,101097.91
2023-05-21T00:06:20.970Z,101091.47
2023-05-21T00:11:24.198Z,101081.13
2023-05-21T00:16:26.149Z,101084.53
2023-05-21T00:21:28.219Z,101079.63
2023-05-21T00:26:30.149Z,101071.22
2023-05-21T00:31:32.498Z,101072.22
2023-05-21T00:36:34.877Z,101072.06
2023-05-21T00:41:38.321Z,101065.53
2023-05-21T00:46:40.392Z,101066.41
2023-05-21T00:51:45.202Z,101062.03
2023-05-21T00:56:47.845Z,101055.19
2023-05-21T01:05:15.619Z,101056.91
2023-05-21T01:10:17.916Z,101057.19
2023-05-21T01:15:20.522Z,101051.75
2023-05-21T01:20:24.859Z,101051.31
2023-05-21T01:25:27.103Z,101048.06
2023-05-21T01:30:29.414Z,101052.81
2023-05-21T01:35:49.951Z,101039.69
2023-05-21T01:41:10.390Z,101037.56
2023-05-21T01:46:16.265Z,101044.75
2023-05-21T01:51:21.949Z,101039.53
2023-05-21T01:56:25.965Z,101041.19
2023-05-21T02:01:30.724Z,101033.00
2023-05-21T02:06:33.602Z,101022.66
2023-05-21T02:11:35.839Z,101010.69
2023-05-21T02:16:38.783Z,101008.00
2023-05-21T02:21:41.573Z,101004.81
2023-05-21T02:26:43.831Z,101008.72
2023-05-21T02:31:45.870Z,101006.25
2023-05-21T02:36:54.763Z,101004.09
2023-05-21T02:41:58.601Z,101001.69
2023-05-21T02:47:03.783Z,101010.47
2023-05-21T02:52:06.183Z,101002.28
2023-05-21T02:57:08.351Z,101000.13
2023-05-21T03:02:10.754Z,100993.53
2023-05-21T03:07:19.215Z,100995.16
2023-05-21T03:12:21.390Z,100988.03
2023-05-21T03:20:50.080Z,101000.06
2023-05-21T03:25:52.076Z,100981.38
2023-05-21T03:30:54.809Z,100986.88
2023-05-21T03:36:23.060Z,100974.78
2023-05-21T03:41:26.195Z,100988.22
2023-05-21T03:46:34.798Z,100985.22
2023-05-21T03:51:44.053Z,100989.66
2023-05-21T03:56:50.371Z,100987.22
2023-05-21T04:07:31.653Z,100988.97
2023-05-21T04:12:37.215Z,100988.66
2023-05-21T04:17:40.004Z,100993.34
2023-05-21T04:23:20.053Z,100999.66
2023-05-21T04:29:05.573Z,101001.56
2023-05-21T04:34:48.554Z,100998.53
2023-05-21T04:40:31.566Z,101004.56
2023-05-21T04:45:33.744Z,101003.44
2023-05-21T04:50:36.307Z,101008.13
2023-05-21T04:55:40.060Z,101007.31
2023-05-21T05:00:42.408Z,101003.22
2023-05-21T05:05:44.695Z,100994.75
2023-05-21T05:10:49.817Z,101004.03
2023-05-21T05:15:55.660Z,101000.69
2023-05-21T05:20:57.790Z,101002.88
2023-05-21T05:25:59.621Z,101001.53
2023-05-21T05:31:02.717Z,101003.97
2023-05-21T05:36:05.310Z,101007.25
2023-05-21T05:41:07.569Z,100998.44
2023-05-21T05:46:09.960Z,100995.97
2023-05-21T05:51:12.093Z,101002.53
2023-05-21T05:56:14.340Z,100995.34
2023-05-21T06:01:17.840Z,101000.47
2023-05-21T06:06:20.690Z,101006.44
2023-05-21T06:11:23.145Z,101003.56
2023-05-21T06:16:25.155Z,101001.28
2023-05-21T06:21:28.067Z,100999.81
2023-05-21T06:26:30.869Z,100992.03
2023-05-21T06:31:33.832Z,100993.03
2023-05-21T06:36:36.013Z,100999.19
2023-05-21T06:41:38.100Z,101007.03
2023-05-21T06:46:57.925Z,101008.38
2023-05-21T06:51:59.995Z,101012.34
2023-05-21T06:57:02.615Z,101021.44
2023-05-21T07:02:06.826Z,101024.91
2023-05-21T07:07:11.891Z,101024.72
2023-05-21T07:12:14.072Z,101026.06
2023-05-21T07:17:16.540Z,101023.91
2023-05-21T07:22:19.042Z,101021.63
2023-05-21T07:27:25.700Z,101019.63
2023-05-21T07:32:31.056Z,101037.03
2023-05-21T07:37:33.357Z,101036.25
2023-05-21T07:42:35.475Z,101040.09
2023-05-21T07:47:38.520Z,101041.69
2023-05-21T07:52:41.055Z,101039.97
2023-05-21T07:57:43.345Z,101036.94
2023-05-21T08:02:48.050Z,101032.56
2023-05-21T08:07:51.125Z,101036.41
2023-05-21T08:12:53.972Z,101037.94
2023-05-21T08:17:57.127Z,101046.75
2023-05-21T08:23:00.950Z,101037.47
2023-05-21T08:28:05.956Z,101039.63
2023-05-21T08:33:08.223Z,101035.09
2023-05-21T08:38:10.416Z,101044.56
2023-05-21T08:43:50.250Z,101043.72
2023-05-21T08:48:55.857Z,101048.28
2023-05-21T08:54:02.197Z,101053.84
2023-05-21T08:59:04.390Z,101060.50
2023-05-21T09:04:20.259Z,101059.84
2023-05-21T09:09:34.253Z,101057.75
2023-05-21T09:14:38.326Z,101052.03
2023-05-21T09:20:14.877Z,101051.72
2023-05-21T09:25:32.414Z,101054.63
2023-05-21T09:30:54.166Z,101053.63
2023-05-21T09:35:56.589Z,101064.34
2023-05-21T09:41:05.568Z,101067.09
2023-05-21T09:46:07.687Z,101073.00
2023-05-21T09:51:17.461Z,101075.41
2023-05-21T09:56:23.509Z,101077.53
2023-05-21T10:01:26.166Z,101074.66
2023-05-21T10:06:30.219Z,101069.44
2023-05-21T10:11:32.704Z,101070.44
2023-05-21T10:16:36.367Z,101076.28
2023-05-21T10:21:40.178Z,101083.94
2023-05-21T10:26:43.488Z,101073.19
2023-05-21T10:31:49.935Z,101085.38
2023-05-21T10:36:54.763Z,101092.84
2023-05-21T10:42:32.041Z,101093.50
2023-05-21T10:47:59.160Z,101088.63
2023-05-21T10:53:25.892Z,101097.41
2023-05-21T10:58:52.963Z,101090.84
2023-05-21T11:03:56.009Z,101091.25
2023-05-21T11:09:22.096Z,101083.97
2023-05-21T11:14:40.551Z,101093.09
2023-05-21T11:19:55.851Z,101084.78
2023-05-21T11:25:02.257Z,101091.44
2023-05-21T11:30:06.783Z,101086.72
2023-05-21T11:35:09.262Z,101084.13
2023-05-21T11:40:19.894Z,101089.31
2023-05-21T11:45:29.631Z,101097.31
2023-05-21T11:50:34.062Z,101092.94
2023-05-21T11:55:43.583Z,101088.19
2023-05-21T12:00:46.099Z,101091.91
2023-05-21T12:05:49.559Z,101087.25
2023-05-21T12:10:58.535Z,101095.50
2023-05-21T12:16:00.813Z,101110.84
2023-05-21T12:21:03.379Z,101099.09
2023-05-21T12:26:05.842Z,101108.69
2023-05-21T12:31:14.297Z,101112.78
2023-05-21T12:36:27.837Z,101107.78
2023-05-21T12:41:29.947Z,101114.41
2023-05-21T12:46:32.215Z,101114.94
2023-05-21T12:51:40.395Z,101115.31
2023-05-21T12:56:46.080Z,101114.31
2023-05-21T13:01:49.701Z,101119.56
2023-05-21T13:06:51.709Z,101118.88
2023-05-21T13:11:54.013Z,101109.72
2023-05-21T13:16:56.204Z,101109.31
2023-05-21T13:21:58.325Z,101099.44
2023-05-21T13:27:00.411Z,101103.34
2023-05-21T13:32:05.495Z,101098.00
2023-05-21T13:37:07.763Z,101105.00
2023-05-21T13:42:09.878Z,101095.50
2023-05-21T13:47:12.238Z,101095.34
2023-05-21T13:52:14.667Z,101099.75
2023-05-21T13:57:16.813Z,101094.56
2023-05-21T14:02:19.268Z,101097.00
2023-05-21T14:07:22.250Z,101089.34
2023-05-21T14:12:24.570Z,101097.63
2023-05-21T14:17:26.774Z,101096.19
2023-05-21T14:22:28.923Z,101099.09
2023-05-21T14:27:31.126Z,101097.72
2023-05-21T14:32:33.618Z,101104.03
2023-05-21T14:37:35.737Z,101095.91
2023-05-21T14:42:38.025Z,101094.69
2023-05-21T14:47:40.307Z,101098.28
2023-05-21T14:52:45.213Z,101104.97
2023-05-21T14:57:47.612Z,101107.59
2023-05-21T15:02:49.749Z,101095.56
2023-05-21T15:07:52.199Z,101091.94
2023-05-21T15:12:54.695Z,101098.81
2023-05-21T15:17:57.829Z,101097.19
2023-05-21T15:23:15.321Z,101084.06
2023-05-21T15:28:19.871Z,101094.41
2023-05-21T15:33:21.894Z,101089.53
2023-05-21T15:38:24.005Z,101095.22
2023-05-21T15:43:26.003Z,101085.34
2023-05-21T15:48:28.176Z,101089.94
2023-05-21T15:53:30.429Z,101085.28
2023-05-21T15:58:32.818Z,101085.19
2023-05-21T16:03:35.006Z,101087.41
2023-05-21T16:08:37.768Z,101086.94
2023-05-21T16:13:39.847Z,101081.00
2023-05-21T16:18:42.018Z,101075.88
2023-05-21T16:23:44.083Z,101065.28
2023-05-21T16:28:46.431Z,101069.03
2023-05-21T16:33:48.507Z,101064.53
2023-05-21T16:38:50.749Z,101058.28
2023-05-21T16:43:54.433Z,101064.72
2023-05-21T16:48:56.603Z,101067.28
2023-05-21T16:53:58.722Z,101052.03
2023-05-21T16:59:01.003Z,101059.78
2023-05-21T17:04:03.303Z,101049.69
2023-05-21T17:09:05.734Z,101057.84
2023-05-21T17:14:13.496Z,101064.97
2023-05-21T17:19:19.825Z,101066.47
2023-05-21T17:24:22.055Z,101061.75
2023-05-21T17:29:24.189Z,101057.69
2023-05-21T17:34:29.610Z,101060.75
2023-05-21T17:39:31.946Z,101065.09
2023-05-21T17:44:34.121Z,101077.38
2023-05-21T17:49:36.421Z,101079.25
2023-05-21T17:54:38.710Z,101077.97
2023-05-21T17:59:45.100Z,101081.94
2023-05-21T18:04:47.314Z,101081.03
2023-05-21T18:09:49.784Z,101092.38
2023-05-21T18:14:51.927Z,101095.75
2023-05-21T18:19:56.747Z,101089.34
2023-05-21T18:25:01.242Z,101081.69
2023-05-21T18:30:06.610Z,101084.16
2023-05-21T18:35:14.362Z,101087.94
2023-05-21T18:40:18.575Z,101095.41
2023-05-21T18:45:23.605Z,101105.91
2023-05-21T18:50:25.995Z,101108.13
2023-05-21T18:55:28.236Z,101100.91
2023-05-21T19:00:30.666Z,101099.06
2023-05-21T19:05:32.810Z,101106.09
2023-05-21T19:10:35.341Z,101107.63
2023-05-21T19:15:37.662Z,101102.63
2023-05-21T19:20:40.169Z,101099.25
2023-05-21T19:25:42.300Z,101099.75
2023-05-21T19:30:44.634Z,101103.00
2023-05-21T19:35:47.991Z,101103.53
2023-05-21T19:40:50.220Z,101108.09
2023-05-21T19:45:55.531Z,101109.75
2023-05-21T19:50:57.879Z,101113.31
2023-05-21T19:56:00.279Z,101112.19
2023-05-21T20:01:03.642Z,101114.94
2023-05-21T20:06:05.931Z,101122.41
2023-05-21T20:11:08.166Z,101123.22
2023-05-21T20:16:14.652Z,101141.22
2023-05-21T20:21:17.872Z,101133.25
2023-05-21T20:26:19.998Z,101139.38
2023-05-21T20:31:22.692Z,101141.00
2023-05-21T20:36:25.927Z,101151.22
2023-05-21T20:41:37.419Z,101153.19
2023-05-21T20:46:39.809Z,101158.19
2023-05-21T20:51:42.488Z,101155.13
2023-05-21T20:56:49.295Z,101150.41
2023-05-21T21:41:26.613Z,101123.31
2023-05-21T21:46:32.117Z,101121.94
2023-05-21T21:51:35.128Z,101129.94
2023-05-21T21:56:44.882Z,101140.59
2023-05-21T22:01:47.877Z,101135.50
2023-05-21T22:06:50.189Z,101143.84
2023-05-21T22:11:53.546Z,101149.19
2023-05-21T22:17:03.706Z,101156.13
2023-05-21T22:22:12.471Z,101157.56
2023-05-21T22:27:14.604Z,101163.09
2023-05-21T22:32:16.938Z,101164.72
2023-05-21T22:37:19.289Z,101163.59
2023-05-21T22:42:21.945Z,101162.47
2023-05-21T22:47:25.716Z,101169.09
2023-05-21T22:52:40.319Z,101160.84
2023-05-21T22:57:42.682Z,101159.72
2023-05-21T23:02:53.807Z,101149.50
2023-05-21T23:09:47.057Z,101145.00
2023-05-21T23:14:49.037Z,101143.03
2023-05-21T23:19:52.457Z,101143.03
2023-05-21T23:24:54.928Z,101142.22
2023-05-21T23:29:58.625Z,101141.72
2023-05-21T23:35:00.729Z,101136.50
2023-05-21T23:40:03.022Z,101129.97
2023-05-21T23:45:11.460Z,101128.34
2023-05-21T23:50:14.034Z,101123.44
2023-05-21T23:55:19.275Z,101122.44
